Time;durP1;ratioP1;P1;durP2;ratioP2;P2;SDS_P1;SDS_P2;PMS_P1;PMS_P2;Temp;Humidity;BMP_temperature;BMP_pressure;BME280_temperature;BME280_humidity;BME280_pressure;Samples;Min_cycle;Max_cycle;Signal;HPM_P1;HPM_P2
2023/12/15 00:02:34;;;;;;;4.13;2.90;;;17.50;91.40;;;;;;10479867;28;20065;-56
2023/12/15 00:07:36;;;;;;;7.18;3.45;;;17.50;91.30;;;;;;10474450;28;20064;-57
2023/12/15 00:12:39;;;;;;;11.38;5.40;;;17.50;91.10;;;;;;10470281;28;20099;-57
2023/12/15 00:17:41;;;;;;;9.20;5.75;;;16.90;92.30;;;;;;10471227;28;20139;-55
2023/12/15 00:22:43;;;;;;;10.93;5.50;;;17.00;92.30;;;;;;10462655;28;20087;-56
2023/12/15 00:27:48;;;;;;;7.32;3.80;;;16.90;92.50;;;;;;10460767;28;20048;-57
2023/12/15 00:32:50;;;;;;;18.58;6.13;;;17.10;92.00;;;;;;10484481;28;20056;-58
2023/12/15 00:37:52;;;;;;;12.50;5.55;;;17.20;91.70;;;;;;10477679;28;20055;-57
2023/12/15 00:42:56;;;;;;;9.80;4.60;;;17.20;91.40;;;;;;10475747;28;20481;-57
2023/12/15 00:47:58;;;;;;;15.00;6.15;;;17.30;91.40;;;;;;10479194;28;20574;-57
2023/12/15 00:52:59;;;;;;;9.67;4.00;;;17.10;91.50;;;;;;10480897;28;20052;-58
2023/12/15 00:58:04;;;;;;;9.38;4.88;;;17.40;91.10;;;;;;10475007;28;20529;-58
2023/12/15 01:03:06;;;;;;;11.45;4.43;;;17.00;91.70;;;;;;10481784;28;20108;-58
2023/12/15 01:08:08;;;;;;;7.80;3.97;;;17.10;91.50;;;;;;10480350;28;20051;-57
2023/12/15 01:13:11;;;;;;;17.97;5.33;;;16.40;92.80;;;;;;10474454;28;20793;-56
2023/12/15 01:18:13;;;;;;;20.48;5.68;;;16.80;92.00;;;;;;10478845;28;20049;-58
2023/12/15 01:23:15;;;;;;;10.63;3.80;;;16.30;90.80;;;;;;10482255;28;20798;-57
2023/12/15 01:28:18;;;;;;;9.07;3.78;;;16.70;92.50;;;;;;10480913;28;20071;-57
2023/12/15 01:33:20;;;;;;;15.45;5.43;;;16.40;92.90;;;;;;10478948;28;20404;-57
2023/12/15 01:38:23;;;;;;;14.07;3.50;;;15.70;93.60;;;;;;10478513;28;20189;-57
2023/12/15 01:43:26;;;;;;;14.65;4.65;;;16.80;92.60;;;;;;10482064;28;20056;-59
2023/12/15 01:48:30;;;;;;;14.93;4.10;;;17.10;91.40;;;;;;10482202;28;20134;-56
2023/12/15 01:53:32;;;;;;;17.05;3.67;;;17.00;90.90;;;;;;10477648;28;20052;-57
2023/12/15 01:58:35;;;;;;;6.60;2.65;;;17.00;91.50;;;;;;10474361;28;20049;-57
2023/12/15 02:03:37;;;;;;;8.30;3.58;;;17.10;91.30;;;;;;10466125;28;20079;-59
2023/12/15 02:08:44;;;;;;;9.38;3.50;;;17.10;91.10;;;;;;10479679;28;20059;-57
2023/12/15 02:13:47;;;;;;;14.60;3.47;;;16.90;91.40;;;;;;10464814;28;20049;-56
2023/12/15 02:18:49;;;;;;;8.98;3.60;;;16.70;91.60;;;;;;10466159;28;20078;-57
2023/12/15 02:23:53;;;;;;;12.33;3.93;;;16.10;92.80;;;;;;10461667;28;20051;-58
2023/12/15 02:28:55;;;;;;;8.13;2.78;;;16.80;92.00;;;;;;10467154;28;20530;-58
2023/12/15 02:33:57;;;;;;;11.15;3.33;;;16.90;91.50;;;;;;10469865;28;20143;-57
2023/12/15 02:39:02;;;;;;;5.05;2.53;;;17.20;90.70;;;;;;10471999;28;20142;-57
2023/12/15 02:44:05;;;;;;;13.85;4.20;;;17.20;90.60;;;;;;10476584;28;20419;-58
2023/12/15 02:49:09;;;;;;;17.88;4.40;;;17.10;90.00;;;;;;10472950;28;20051;-56
2023/12/15 02:54:13;;;;;;;11.88;3.72;;;16.10;91.50;;;;;;10465496;28;20057;-58
2023/12/15 02:59:15;;;;;;;14.82;3.38;;;16.00;93.20;;;;;;10468016;28;20111;-55
2023/12/15 03:04:17;;;;;;;11.43;3.30;;;15.80;94.00;;;;;;10467399;28;20103;-58
2023/12/15 03:09:20;;;;;;;10.83;3.23;;;15.90;94.10;;;;;;10467922;28;20225;-57
2023/12/15 03:14:22;;;;;;;12.30;4.50;;;15.90;93.40;;;;;;10469781;28;20060;-57
2023/12/15 03:19:24;;;;;;;8.82;2.50;;;15.80;94.20;;;;;;10470922;28;20093;-57
2023/12/15 03:24:27;;;;;;;17.55;5.15;;;15.50;93.90;;;;;;10460570;28;20039;-56
2023/12/15 03:29:29;;;;;;;9.85;3.83;;;15.00;94.30;;;;;;10466502;28;20392;-56
2023/12/15 03:34:31;;;;;;;11.60;3.83;;;14.60;97.80;;;;;;10470865;28;20064;-56
2023/12/15 03:39:35;;;;;;;9.33;3.30;;;15.90;94.80;;;;;;10474514;28;20502;-54
2023/12/15 03:44:39;;;;;;;24.50;4.78;;;15.80;94.60;;;;;;10474867;28;20044;-53
2023/12/15 03:49:41;;;;;;;18.23;3.60;;;14.90;93.60;;;;;;10481523;28;20045;-55
2023/12/15 03:54:44;;;;;;;13.20;3.63;;;14.70;97.40;;;;;;10476331;28;20120;-54
2023/12/15 04:15:31;;;;;;;20.30;4.78;;;15.60;95.10;;;;;;10538888;27;20635;-59
2023/12/15 04:20:33;;;;;;;13.98;3.55;;;14.40;98.70;;;;;;10559535;27;20043;-56
2023/12/15 04:25:35;;;;;;;18.10;4.70;;;15.10;97.40;;;;;;10559866;28;20097;-57
2023/12/15 04:30:38;;;;;;;21.57;4.00;;;15.60;94.90;;;;;;10551941;28;20055;-57
2023/12/15 04:35:40;;;;;;;19.88;4.47;;;15.10;95.40;;;;;;10551379;28;20104;-54
2023/12/15 04:40:42;;;;;;;23.27;4.90;;;15.30;93.90;;;;;;10559150;27;20296;-58
2023/12/15 04:45:45;;;;;;;29.33;4.63;;;14.10;96.10;;;;;;10550907;27;20047;-57
2023/12/15 04:50:47;;;;;;;21.10;3.78;;;13.30;99.90;;;;;;10550850;28;20514;-56
2023/12/15 04:55:49;;;;;;;19.80;4.00;;;12.40;99.90;;;;;;10547599;27;20163;-55
2023/12/15 05:00:53;;;;;;;22.65;4.30;;;12.80;99.90;;;;;;10550591;28;20883;-55
2023/12/15 05:05:55;;;;;;;27.38;4.47;;;13.10;99.90;;;;;;10546397;28;20245;-56
2023/12/15 05:10:57;;;;;;;20.97;4.60;;;11.60;99.90;;;;;;10546169;28;20537;-54
2023/12/15 05:16:01;;;;;;;19.73;5.10;;;11.90;99.90;;;;;;10548499;28;20051;-57
2023/12/15 05:21:03;;;;;;;10.18;2.88;;;13.00;99.90;;;;;;10547428;28;20047;-57
2023/12/15 05:26:05;;;;;;;20.43;3.57;;;13.60;99.90;;;;;;10524715;28;20081;-59
2023/12/15 05:31:09;;;;;;;21.55;4.95;;;12.50;99.90;;;;;;10520992;28;20683;-56
2023/12/15 05:36:18;;;;;;;23.38;4.95;;;12.70;99.90;;;;;;10513124;28;20130;-58
2023/12/15 05:41:22;;;;;;;23.83;3.78;;;11.90;99.90;;;;;;10526663;28;20077;-56
2023/12/15 05:46:25;;;;;;;20.23;5.45;;;12.20;99.90;;;;;;10519591;28;20056;-58
2023/12/15 05:51:27;;;;;;;25.42;4.25;;;12.90;99.90;;;;;;10519718;28;20039;-56
2023/12/15 05:56:29;;;;;;;20.23;4.57;;;11.50;99.90;;;;;;10525032;27;20105;-57
2023/12/15 06:01:33;;;;;;;19.13;3.88;;;11.30;99.90;;;;;;10524345;28;20043;-56
2023/12/15 06:06:35;;;;;;;18.30;4.30;;;11.60;99.90;;;;;;10524687;28;20052;-57
2023/12/15 06:11:40;;;;;;;27.88;4.38;;;11.40;99.90;;;;;;10522778;28;20051;-57
2023/12/15 06:16:43;;;;;;;25.13;4.55;;;11.00;99.90;;;;;;10526079;28;20047;-56
2023/12/15 06:21:45;;;;;;;26.50;4.28;;;11.20;99.90;;;;;;10517754;28;20076;-55
2023/12/15 06:26:47;;;;;;;18.63;3.28;;;12.10;99.90;;;;;;10520266;28;20458;-57
2023/12/15 06:31:50;;;;;;;14.48;3.97;;;14.10;99.90;;;;;;10507421;28;20090;-57
2023/12/15 06:36:52;;;;;;;22.60;3.78;;;14.00;99.90;;;;;;10513638;28;20165;-56
2023/12/15 06:41:54;;;;;;;13.75;3.15;;;14.70;99.90;;;;;;10514123;28;20051;-56
2023/12/15 06:46:58;;;;;;;19.38;3.75;;;13.50;99.90;;;;;;10515708;28;20051;-54
2023/12/15 06:52:00;;;;;;;15.50;3.72;;;13.60;99.90;;;;;;10516439;28;20137;-56
2023/12/15 06:57:02;;;;;;;18.70;3.63;;;14.30;99.90;;;;;;10517486;28;20118;-56
2023/12/15 07:02:06;;;;;;;6.00;1.63;;;14.60;99.30;;;;;;10515688;28;20060;-58
2023/12/15 07:07:08;;;;;;;18.42;3.10;;;14.50;99.90;;;;;;10510325;28;20080;-57
2023/12/15 07:12:10;;;;;;;12.53;3.10;;;15.30;99.90;;;;;;10507721;28;20537;-57
2023/12/15 07:17:13;;;;;;;14.53;2.93;;;14.40;99.90;;;;;;10515056;28;20504;-54
2023/12/15 07:22:15;;;;;;;19.27;4.78;;;14.90;99.90;;;;;;10509617;28;20920;-57
2023/12/15 07:27:17;;;;;;;21.10;3.30;;;14.50;96.80;;;;;;10514885;28;20285;-58
2023/12/15 07:32:20;;;;;;;9.60;2.25;;;12.40;99.90;;;;;;10508831;28;20085;-57
2023/12/15 07:37:22;;;;;;;19.35;3.33;;;14.00;99.90;;;;;;10519229;28;20052;-56
2023/12/15 07:42:26;;;;;;;12.52;2.55;;;13.00;99.90;;;;;;10519651;28;20075;-59
2023/12/15 07:47:29;;;;;;;21.98;3.63;;;13.00;99.90;;;;;;10515718;28;20060;-59
2023/12/15 07:52:31;;;;;;;15.98;2.30;;;13.10;99.90;;;;;;10511385;28;20044;-56
2023/12/15 07:57:33;;;;;;;3.03;1.37;;;13.70;99.90;;;;;;10512953;28;20668;-57
2023/12/15 08:02:37;;;;;;;18.88;3.15;;;13.40;99.90;;;;;;10515546;28;20134;-56
2023/12/15 08:07:39;;;;;;;18.50;2.75;;;13.10;99.90;;;;;;10514563;28;20162;-56
2023/12/15 08:12:41;;;;;;;17.47;3.37;;;12.30;99.90;;;;;;10508936;28;20100;-56
2023/12/15 08:17:44;;;;;;;23.35;2.85;;;12.20;99.90;;;;;;10513241;28;20110;-58
2023/12/15 08:22:46;;;;;;;6.72;2.13;;;11.60;99.90;;;;;;10510007;28;20487;-58
2023/12/15 08:27:48;;;;;;;15.43;2.75;;;13.20;99.90;;;;;;10514552;28;20055;-59
2023/12/15 08:32:51;;;;;;;14.65;2.35;;;14.00;99.90;;;;;;10510399;28;20903;-57
2023/12/15 08:37:54;;;;;;;14.50;1.90;;;14.70;98.60;;;;;;10513409;28;20052;-57
2023/12/15 08:42:56;;;;;;;7.53;1.95;;;14.50;99.20;;;;;;10504904;28;20582;-57
2023/12/15 08:47:59;;;;;;;13.00;2.43;;;14.10;99.90;;;;;;10511610;28;20055;-57
2023/12/15 08:53:02;;;;;;;9.00;2.85;;;14.30;99.00;;;;;;10511685;28;20069;-57
2023/12/15 08:58:05;;;;;;;8.32;1.50;;;14.20;97.50;;;;;;10510139;28;20040;-57
2023/12/15 09:03:08;;;;;;;9.93;2.03;;;13.10;99.90;;;;;;10523351;27;20118;-56
2023/12/15 09:08:10;;;;;;;10.00;2.05;;;14.40;96.50;;;;;;10521475;28;20055;-56
2023/12/15 09:13:12;;;;;;;12.53;1.97;;;16.90;94.60;;;;;;10516124;28;20143;-56
2023/12/15 09:18:16;;;;;;;7.50;2.30;;;17.40;92.70;;;;;;10514903;28;20047;-58
2023/12/15 09:23:19;;;;;;;16.33;2.33;;;17.60;91.40;;;;;;10510669;28;20075;-56
2023/12/15 09:28:21;;;;;;;8.32;1.58;;;17.70;91.00;;;;;;10513960;28;20056;-57
2023/12/15 09:33:25;;;;;;;6.03;1.33;;;17.50;91.80;;;;;;10509270;28;20795;-57
2023/12/15 09:38:27;;;;;;;16.40;2.55;;;17.60;91.30;;;;;;10508732;28;20117;-57
2023/12/15 09:43:29;;;;;;;17.73;2.13;;;14.40;98.40;;;;;;10510069;28;20055;-56
2023/12/15 09:48:33;;;;;;;20.60;3.40;;;13.90;99.90;;;;;;10508691;27;20900;-57
2023/12/15 09:53:36;;;;;;;12.10;2.30;;;14.00;94.40;;;;;;10510230;28;20749;-57
2023/12/15 09:58:39;;;;;;;6.07;1.90;;;13.70;99.40;;;;;;10510692;28;20094;-56
2023/12/15 10:03:42;;;;;;;9.60;2.40;;;13.00;99.90;;;;;;10509250;28;20108;-58
2023/12/15 10:08:45;;;;;;;20.20;4.07;;;13.20;95.40;;;;;;10506485;28;20512;-56
2023/12/15 10:13:47;;;;;;;15.35;2.90;;;11.90;98.00;;;;;;10509047;28;20056;-56
2023/12/15 10:18:51;;;;;;;12.38;1.75;;;12.20;98.40;;;;;;10509742;28;20163;-56
2023/12/15 10:23:54;;;;;;;22.73;2.72;;;12.40;99.30;;;;;;10508605;28;20056;-56
2023/12/15 10:28:57;;;;;;;18.25;2.72;;;12.50;99.90;;;;;;10508666;28;20059;-56
2023/12/15 10:34:00;;;;;;;15.98;3.50;;;12.70;99.90;;;;;;10507451;28;20074;-58
2023/12/15 10:39:03;;;;;;;17.15;2.80;;;12.30;99.90;;;;;;10505322;28;20739;-57
2023/12/15 10:44:06;;;;;;;12.32;1.95;;;11.70;99.50;;;;;;10511786;28;20222;-57
2023/12/15 10:49:10;;;;;;;13.23;3.10;;;12.40;99.90;;;;;;10507858;28;20258;-58
2023/12/15 10:54:16;;;;;;;10.80;2.08;;;12.80;99.90;;;;;;10506493;28;20790;-57
2023/12/15 10:59:18;;;;;;;12.10;1.77;;;12.40;99.90;;;;;;10503597;28;20163;-55
2023/12/15 11:04:22;;;;;;;14.38;2.28;;;12.50;99.80;;;;;;10506616;28;20071;-56
2023/12/15 11:09:30;;;;;;;13.15;2.17;;;12.50;99.90;;;;;;10505127;28;20142;-58
2023/12/15 11:14:32;;;;;;;12.63;3.10;;;12.10;98.40;;;;;;10510589;28;20134;-57
2023/12/15 11:19:37;;;;;;;11.43;2.67;;;12.50;99.90;;;;;;10501175;28;20075;-58
2023/12/15 11:24:39;;;;;;;12.55;2.45;;;12.90;99.90;;;;;;10507402;28;20517;-55
2023/12/15 11:29:42;;;;;;;6.80;1.77;;;14.00;94.30;;;;;;10508908;28;20190;-57
2023/12/15 11:34:46;;;;;;;15.95;2.67;;;12.80;94.90;;;;;;10504240;28;20139;-57
2023/12/15 11:39:48;;;;;;;8.63;1.70;;;12.10;94.60;;;;;;10510991;28;20056;-56
2023/12/15 11:44:50;;;;;;;12.05;2.35;;;12.20;98.10;;;;;;10503646;28;20080;-58
2023/12/15 11:49:53;;;;;;;7.30;1.13;;;12.20;95.40;;;;;;10506006;28;20985;-56
2023/12/15 11:54:55;;;;;;;11.38;3.50;;;12.70;96.10;;;;;;10506978;28;20128;-58
2023/12/15 12:00:01;;;;;;;14.70;2.50;;;13.20;98.80;;;;;;10502823;28;20161;-56
2023/12/15 12:05:07;;;;;;;17.17;2.78;;;12.50;91.80;;;;;;10499830;28;20052;-55
2023/12/15 12:10:10;;;;;;;6.68;1.50;;;12.30;94.80;;;;;;10502418;28;20100;-55
2023/12/15 12:15:12;;;;;;;7.40;2.17;;;12.20;99.60;;;;;;10507320;28;20055;-61
2023/12/15 12:20:15;;;;;;;15.73;4.00;;;13.10;97.90;;;;;;10500873;28;20155;-54
2023/12/15 12:25:17;;;;;;;7.38;1.67;;;12.60;96.60;;;;;;10502684;28;20774;-56
2023/12/15 12:30:20;;;;;;;6.00;1.60;;;12.70;99.20;;;;;;10492598;28;20162;-55
2023/12/15 12:35:26;;;;;;;13.05;2.50;;;12.30;99.90;;;;;;10508892;28;20044;-55
2023/12/15 12:40:28;;;;;;;20.58;3.38;;;11.80;99.40;;;;;;10514171;28;20081;-55
2023/12/15 12:45:31;;;;;;;14.85;2.50;;;12.50;99.90;;;;;;10511054;28;20040;-54
2023/12/15 12:50:37;;;;;;;13.25;1.95;;;12.50;99.70;;;;;;10515351;28;20068;-55
2023/12/15 12:55:39;;;;;;;16.23;2.88;;;12.80;96.80;;;;;;10510715;28;20166;-56
2023/12/15 13:00:41;;;;;;;16.63;3.60;;;12.00;99.90;;;;;;10508885;28;20419;-54
2023/12/15 13:05:44;;;;;;;20.38;2.65;;;12.40;99.90;;;;;;10502544;28;20052;-57
2023/12/15 13:10:46;;;;;;;16.20;2.45;;;12.80;98.50;;;;;;10510364;28;20589;-55
2023/12/15 13:15:48;;;;;;;11.43;1.93;;;12.60;98.20;;;;;;10518256;28;20844;-58
2023/12/15 13:20:52;;;;;;;7.73;1.47;;;12.50;96.40;;;;;;10509557;28;20083;-57
2023/12/15 13:25:54;;;;;;;7.88;2.38;;;12.40;99.90;;;;;;10511899;28;20143;-58
2023/12/15 13:30:59;;;;;;;12.57;1.63;;;12.20;99.30;;;;;;10511525;28;20114;-58
2023/12/15 13:36:02;;;;;;;13.80;2.03;;;12.50;99.90;;;;;;10507989;28;20920;-56
2023/12/15 13:41:04;;;;;;;26.33;3.53;;;12.40;99.00;;;;;;10515071;28;20146;-58
2023/12/15 13:46:06;;;;;;;18.77;3.40;;;11.90;99.90;;;;;;10506943;28;20485;-58
2023/12/15 13:51:10;;;;;;;14.55;2.05;;;11.80;98.80;;;;;;10507084;28;20075;-57
2023/12/15 13:56:12;;;;;;;14.90;3.13;;;12.50;99.90;;;;;;10509819;28;20163;-58
2023/12/15 14:01:14;;;;;;;10.43;1.43;;;12.10;99.90;;;;;;10514384;28;20167;-57
2023/12/15 14:06:17;;;;;;;9.35;1.92;;;12.50;99.90;;;;;;10511393;28;20498;-59
2023/12/15 14:11:19;;;;;;;8.35;2.47;;;12.70;99.90;;;;;;10508907;27;20242;-58
2023/12/15 14:16:21;;;;;;;13.43;2.70;;;11.80;93.90;;;;;;10509565;28;20245;-58
2023/12/15 14:21:24;;;;;;;11.52;1.67;;;12.40;97.50;;;;;;10507494;28;20451;-59
2023/12/15 14:26:26;;;;;;;8.80;1.70;;;13.00;95.30;;;;;;10502406;28;20147;-57
2023/12/15 14:31:28;;;;;;;12.73;1.90;;;13.30;99.90;;;;;;10501898;27;20142;-57
2023/12/15 14:36:32;;;;;;;11.03;2.30;;;13.40;98.10;;;;;;10503167;28;20068;-59
2023/12/15 14:41:34;;;;;;;13.95;2.90;;;13.00;97.00;;;;;;10498211;28;20109;-58
2023/12/15 14:46:36;;;;;;;10.23;1.60;;;13.50;96.50;;;;;;10512863;28;20363;-58
2023/12/15 14:51:40;;;;;;;18.95;2.58;;;12.80;99.90;;;;;;10513163;28;20679;-59
2023/12/15 14:56:42;;;;;;;14.38;2.10;;;12.30;92.80;;;;;;10519320;28;20063;-57
2023/12/15 15:01:44;;;;;;;10.77;1.53;;;12.30;96.90;;;;;;10524659;28;20739;-58
2023/12/15 15:06:49;;;;;;;17.43;3.30;;;12.90;99.80;;;;;;10511269;28;20051;-58
2023/12/15 15:11:51;;;;;;;14.60;2.08;;;12.90;94.80;;;;;;10510193;28;20048;-57
2023/12/15 15:16:53;;;;;;;15.70;3.20;;;12.10;92.70;;;;;;10514977;28;20039;-56
2023/12/15 15:21:57;;;;;;;16.60;2.95;;;11.50;94.90;;;;;;10514540;28;20058;-55
2023/12/15 15:26:59;;;;;;;11.55;2.65;;;12.00;98.80;;;;;;10512388;28;20208;-58
2023/12/15 15:32:01;;;;;;;11.90;2.50;;;11.90;95.60;;;;;;10508420;28;20503;-53
2023/12/15 15:37:05;;;;;;;18.35;3.03;;;12.40;99.90;;;;;;10522389;28;20090;-56
2023/12/15 15:42:09;;;;;;;18.58;2.78;;;12.20;99.90;;;;;;10519367;28;20039;-53
2023/12/15 15:47:12;;;;;;;23.40;2.80;;;12.70;98.30;;;;;;10516050;27;20558;-57
2023/12/15 15:52:15;;;;;;;21.38;2.33;;;12.80;94.80;;;;;;10509622;28;20494;-55
2023/12/15 15:57:17;;;;;;;11.82;2.28;;;12.00;99.90;;;;;;10515003;28;20054;-56
2023/12/15 16:02:19;;;;;;;15.50;3.13;;;11.50;99.90;;;;;;10505893;28;21264;-54
2023/12/15 16:07:23;;;;;;;18.50;3.38;;;11.70;99.60;;;;;;10504678;28;20044;-54
2023/12/15 16:12:25;;;;;;;16.55;3.30;;;11.50;96.30;;;;;;10511072;28;20800;-56
2023/12/15 16:17:28;;;;;;;12.80;2.00;;;11.00;97.70;;;;;;10506099;28;20079;-57
2023/12/15 16:22:32;;;;;;;14.73;2.97;;;11.80;99.90;;;;;;10505590;28;20056;-55
2023/12/15 16:27:34;;;;;;;10.85;2.45;;;11.20;98.80;;;;;;10507392;28;20050;-57
2023/12/15 16:32:36;;;;;;;33.13;4.18;;;12.10;99.90;;;;;;10510264;28;20043;-58
2023/12/15 16:37:41;;;;;;;15.30;3.50;;;11.80;99.90;;;;;;10505813;28;20352;-57
2023/12/15 16:42:45;;;;;;;12.93;2.90;;;11.70;99.90;;;;;;10505439;28;20052;-55
2023/12/15 16:47:47;;;;;;;20.38;4.05;;;12.40;99.90;;;;;;10508265;28;20108;-58
2023/12/15 16:52:51;;;;;;;19.85;4.70;;;12.00;99.90;;;;;;10504259;28;20134;-55
2023/12/15 16:57:55;;;;;;;26.42;4.22;;;11.30;99.90;;;;;;10506553;28;20048;-57
2023/12/15 17:02:57;;;;;;;17.95;3.67;;;11.10;99.90;;;;;;10503881;28;20058;-57
2023/12/15 17:08:01;;;;;;;19.23;3.13;;;12.30;99.90;;;;;;10502162;28;20147;-56
2023/12/15 17:13:03;;;;;;;18.17;4.63;;;11.00;99.90;;;;;;10503986;28;20056;-56
2023/12/15 17:18:05;;;;;;;12.70;2.50;;;10.50;99.90;;;;;;10504905;28;20044;-55
2023/12/15 17:23:09;;;;;;;15.30;2.83;;;11.50;99.90;;;;;;10509780;28;20142;-57
2023/12/15 17:28:11;;;;;;;19.02;2.83;;;11.80;99.90;;;;;;10508640;28;20056;-58
2023/12/15 17:33:14;;;;;;;17.40;3.13;;;11.50;99.90;;;;;;10514696;28;20728;-58
2023/12/15 17:38:18;;;;;;;11.48;3.70;;;12.40;99.90;;;;;;10508552;28;22771;-58
2023/12/15 17:43:21;;;;;;;18.25;2.67;;;12.30;98.30;;;;;;10518670;28;20093;-56
2023/12/15 17:48:23;;;;;;;11.52;2.58;;;12.30;99.90;;;;;;10516894;28;20058;-56
2023/12/15 17:53:27;;;;;;;19.53;3.03;;;12.50;99.90;;;;;;10509911;28;20980;-56
2023/12/15 17:58:29;;;;;;;18.27;3.15;;;11.20;98.70;;;;;;10521609;28;20518;-54
2023/12/15 18:03:31;;;;;;;14.30;2.53;;;11.80;99.90;;;;;;10521177;28;20126;-54
2023/12/15 18:08:35;;;;;;;17.55;2.60;;;12.10;98.90;;;;;;10525699;28;20110;-55
2023/12/15 18:13:37;;;;;;;13.63;2.80;;;11.80;99.90;;;;;;10526699;28;20051;-57
2023/12/15 18:18:40;;;;;;;16.47;3.17;;;12.20;99.90;;;;;;10522374;28;20056;-54
2023/12/15 18:23:44;;;;;;;18.15;3.63;;;12.10;96.20;;;;;;10513076;28;20485;-55
2023/12/15 18:28:46;;;;;;;17.70;3.67;;;11.00;98.40;;;;;;10524764;28;20051;-55
2023/12/15 18:33:48;;;;;;;20.67;3.97;;;10.40;99.90;;;;;;10521536;28;20047;-57
2023/12/15 18:38:51;;;;;;;16.63;3.80;;;10.50;99.90;;;;;;10519369;28;23031;-57
2023/12/15 18:43:53;;;;;;;16.92;3.28;;;10.30;99.90;;;;;;10516635;28;20054;-54
2023/12/15 18:48:55;;;;;;;21.93;3.90;;;10.20;99.90;;;;;;10520948;28;20078;-56
2023/12/15 18:54:00;;;;;;;18.80;3.50;;;10.10;99.90;;;;;;10520661;28;20052;-56
2023/12/15 18:59:02;;;;;;;26.10;6.03;;;10.10;99.90;;;;;;10513871;28;20048;-55
2023/12/15 19:04:04;;;;;;;23.85;3.97;;;10.10;99.90;;;;;;10512192;28;22608;-56
2023/12/15 19:09:10;;;;;;;22.60;2.65;;;9.80;99.90;;;;;;10486407;28;20052;-57
2023/12/15 19:14:13;;;;;;;12.95;2.25;;;9.70;99.90;;;;;;10471761;28;20100;-57
2023/12/15 19:19:15;;;;;;;19.38;3.20;;;10.00;99.90;;;;;;10478924;28;20044;-55
2023/12/15 19:24:19;;;;;;;18.80;2.90;;;10.00;99.90;;;;;;10471627;28;20852;-56
2023/12/15 19:29:21;;;;;;;12.18;2.00;;;10.90;99.40;;;;;;10476464;28;20422;-56
2023/12/15 19:34:23;;;;;;;15.55;2.95;;;10.80;99.20;;;;;;10476703;28;20233;-59
2023/12/15 19:39:26;;;;;;;13.73;2.70;;;10.80;99.50;;;;;;10472078;28;20091;-59
2023/12/15 19:44:28;;;;;;;15.60;2.60;;;11.30;99.90;;;;;;10470537;28;20146;-55
2023/12/15 19:49:32;;;;;;;16.33;2.10;;;11.20;99.90;;;;;;10470172;28;20063;-55
2023/12/15 19:54:35;;;;;;;19.58;3.35;;;11.20;99.90;;;;;;10470892;28;20062;-58
2023/12/15 19:59:37;;;;;;;13.23;2.10;;;11.00;93.40;;;;;;10467949;28;20063;-56
2023/12/15 20:04:43;;;;;;;16.45;3.17;;;10.50;97.80;;;;;;10467265;28;20114;-57
2023/12/15 20:09:46;;;;;;;15.57;3.20;;;10.70;94.60;;;;;;10469060;28;20086;-58
2023/12/15 20:14:48;;;;;;;11.05;2.15;;;11.80;99.90;;;;;;10465138;28;20080;-58
2023/12/15 20:19:50;;;;;;;12.70;2.50;;;11.40;97.80;;;;;;10462696;28;20056;-57
2023/12/15 20:24:54;;;;;;;13.77;2.40;;;11.10;99.90;;;;;;10463511;28;20040;-57
2023/12/15 20:29:56;;;;;;;18.00;3.40;;;11.20;99.90;;;;;;10463228;28;20108;-58
2023/12/15 20:34:58;;;;;;;11.55;2.20;;;10.90;95.00;;;;;;10468121;28;20159;-58
2023/12/15 20:40:01;;;;;;;9.48;2.45;;;10.80;97.00;;;;;;10461561;28;20075;-58
2023/12/15 20:45:04;;;;;;;11.43;2.38;;;10.20;95.00;;;;;;10464428;28;20087;-56
2023/12/15 20:50:07;;;;;;;9.02;3.38;;;11.10;98.20;;;;;;10463459;28;23005;-57
2023/12/15 20:55:12;;;;;;;15.38;3.35;;;12.30;99.90;;;;;;10471393;28;20048;-56
2023/12/15 21:00:15;;;;;;;11.75;2.92;;;13.00;99.90;;;;;;10470751;28;20076;-56
2023/12/15 21:05:17;;;;;;;15.10;3.65;;;13.60;99.90;;;;;;10472135;28;20053;-57
2023/12/15 21:10:21;;;;;;;11.40;2.20;;;14.60;97.90;;;;;;10474754;28;20358;-58
2023/12/15 21:15:23;;;;;;;11.10;2.35;;;13.60;96.40;;;;;;10477834;28;20112;-56
2023/12/15 21:20:25;;;;;;;9.67;2.63;;;13.00;95.60;;;;;;10474979;28;20090;-57
2023/12/15 21:25:29;;;;;;;15.57;2.40;;;13.80;99.10;;;;;;10478123;28;20513;-57
2023/12/15 21:30:31;;;;;;;14.02;4.57;;;14.50;88.30;;;;;;10478093;28;20047;-59
2023/12/15 21:35:33;;;;;;;12.25;2.05;;;12.70;91.10;;;;;;10472536;28;20155;-55
2023/12/15 21:40:37;;;;;;;15.25;3.13;;;11.60;95.90;;;;;;10474176;28;20954;-54
2023/12/15 21:45:39;;;;;;;19.40;2.97;;;12.10;99.90;;;;;;10473669;28;20145;-57
2023/12/15 21:50:41;;;;;;;11.73;2.67;;;12.60;99.90;;;;;;10466936;28;20085;-58
2023/12/15 21:55:44;;;;;;;11.15;2.95;;;13.50;99.90;;;;;;10474876;28;23191;-55
2023/12/15 22:00:47;;;;;;;17.70;2.60;;;12.40;99.90;;;;;;10474934;28;20092;-55
2023/12/15 22:05:49;;;;;;;12.95;2.35;;;12.70;96.80;;;;;;10476441;28;20535;-57
2023/12/15 22:10:52;;;;;;;15.50;3.00;;;12.90;98.10;;;;;;10468545;28;20515;-57
2023/12/15 22:15:54;;;;;;;12.07;2.45;;;11.50;97.20;;;;;;10462973;28;20228;-55
2023/12/15 22:20:57;;;;;;;15.82;3.25;;;12.10;98.20;;;;;;10469743;28;20079;-58
2023/12/15 22:26:00;;;;;;;12.60;2.13;;;12.40;99.90;;;;;;10469967;28;20870;-58
2023/12/15 22:31:04;;;;;;;16.40;2.65;;;13.50;96.70;;;;;;10469539;28;20189;-60
2023/12/15 22:36:06;;;;;;;13.02;2.55;;;14.30;99.90;;;;;;10464219;28;20056;-57
2023/12/15 22:41:13;;;;;;;10.07;2.15;;;13.50;91.50;;;;;;10466742;28;20057;-57
2023/12/15 22:46:15;;;;;;;17.63;2.85;;;14.70;98.80;;;;;;10449573;28;20056;-57
2023/12/15 22:51:20;;;;;;;15.67;2.57;;;13.90;92.40;;;;;;10467239;28;20072;-59
2023/12/15 22:56:23;;;;;;;14.05;2.78;;;14.20;97.40;;;;;;10469814;28;20087;-57
2023/12/15 23:01:25;;;;;;;18.75;3.38;;;14.30;98.60;;;;;;10466049;28;20084;-59
2023/12/15 23:06:27;;;;;;;9.40;2.10;;;14.50;94.50;;;;;;10460598;28;20051;-59
2023/12/15 23:11:30;;;;;;;14.40;3.30;;;14.20;96.40;;;;;;10477604;28;20052;-57
2023/12/15 23:16:32;;;;;;;17.63;2.28;;;14.00;95.60;;;;;;10478441;28;20487;-58
2023/12/15 23:21:34;;;;;;;18.52;2.63;;;12.20;98.90;;;;;;10471654;28;20083;-56
2023/12/15 23:26:38;;;;;;;21.55;3.13;;;12.40;99.70;;;;;;10475726;28;20040;-54
2023/12/15 23:31:40;;;;;;;20.60;3.20;;;11.00;98.10;;;;;;10480415;28;20204;-59
2023/12/15 23:36:42;;;;;;;18.80;3.03;;;10.90;99.90;;;;;;10480592;28;20946;-55
2023/12/15 23:41:45;;;;;;;15.30;2.47;;;11.70;99.90;;;;;;10474743;28;20056;-56
2023/12/15 23:46:47;;;;;;;13.52;2.83;;;10.90;99.90;;;;;;10477859;28;20109;-55
2023/12/15 23:51:49;;;;;;;18.30;2.90;;;10.80;99.90;;;;;;10477271;28;20075;-56
2023/12/15 23:56:54;;;;;;;15.77;2.70;;;11.70;99.90;;;;;;10473141;28;20493;-57
